PWSweather.com
Personal Weather Stations
Station Observations
2450ARBOR
Round Rock, TX 78681

Round Rock, TX 78681

Lat: 30.535239, Lon: -97.728137

Elevation: 800

Station Type:

Latest ConditionsUpdated 3:40:00 PM CDT Monday, Sep 23, 2019
Currently Today's Max Today's Min Today's Average
Temperature 97.3°F36.3°C 97.9°F36.6°C 76.1°F24.5°C 83.4°F28.6°C
Dew Point 73.0°F22.8°C 77.1°F25.1°C 72.6°F22.6°C 74.8°F23.8°C
Winds 1.0 mph SSE1.6 kmh SSE 5.0 mph -8.0 kmh - - 0.7 mph 1.1 kmh
Wind Gusts 2.0 mph3.2 kmh 7.0 mph11.3 kmh - -
Humidity 46% 94% 46% 77%
Pressure 29.12 in986.1 mb 29.22 in989.5 mb 29.12 in986.1 mb -
Hour Temp Dew Point Humidity Winds Wind Gusts Pressure Precip Precip Rate Daily Precip Total
03:40 PM 97.3°F36.3°C 73.0°F22.8°C 46% 1.0 mph SSE1.6 kmh SSE 2.0 mph3.2 kmh 29.12 in986.1 mb 0.00 in0.0 mm 0.00 in0.0 mm 0.00 in0.0 mm
03:35 PM 97.9°F36.6°C 73.5°F23.1°C 46% 4.0 mph NNE6.4 kmh NNE 4.0 mph6.4 kmh 29.12 in986.1 mb 0.00 in0.0 mm 0.00 in0.0 mm 0.00 in0.0 mm
03:30 PM 97.2°F36.2°C 72.9°F22.7°C 46% 2.0 mph S3.2 kmh S 3.0 mph4.8 kmh 29.12 in986.1 mb 0.00 in0.0 mm 0.00 in0.0 mm 0.00 in0.0 mm
03:25 PM 97.2°F36.2°C 72.9°F22.7°C 46% 2.0 mph S3.2 kmh S 3.0 mph4.8 kmh 29.12 in986.1 mb 0.00 in0.0 mm 0.00 in0.0 mm 0.00 in0.0 mm
03:20 PM 95.5°F35.3°C 72.6°F22.6°C 48% Calm Calm 2.0 mph3.2 kmh 29.12 in986.1 mb 0.00 in0.0 mm 0.00 in0.0 mm 0.00 in0.0 mm
03:15 PM 96.6°F35.9°C 73.0°F22.8°C 47% 1.0 mph ESE1.6 kmh ESE 5.0 mph8.0 kmh 29.13 in986.5 mb 0.00 in0.0 mm 0.00 in0.0 mm 0.00 in0.0 mm
03:10 PM 95.5°F35.3°C 72.6°F22.6°C 48% 2.0 mph S3.2 kmh S 4.0 mph6.4 kmh 29.13 in986.5 mb 0.00 in0.0 mm 0.00 in0.0 mm 0.00 in0.0 mm
03:05 PM 97.2°F36.2°C 72.9°F22.7°C 46% 2.0 mph S3.2 kmh S 4.0 mph6.4 kmh 29.13 in986.5 mb 0.00 in0.0 mm 0.00 in0.0 mm 0.00 in0.0 mm
03:00 PM 95.2°F35.1°C 73.0°F22.8°C 49% Calm Calm 2.0 mph3.2 kmh 29.13 in986.5 mb 0.00 in0.0 mm 0.00 in0.0 mm 0.00 in0.0 mm
02:55 PM 97.2°F36.2°C 74.2°F23.4°C 48% Calm Calm 2.0 mph3.2 kmh 29.14 in986.8 mb 0.00 in0.0 mm 0.00 in0.0 mm 0.00 in0.0 mm
02:50 PM 97.5°F36.4°C 73.8°F23.2°C 47% Calm Calm 3.0 mph4.8 kmh 29.14 in986.8 mb 0.00 in0.0 mm 0.00 in0.0 mm 0.00 in0.0 mm
02:45 PM 96.4°F35.8°C 74.1°F23.4°C 49% Calm Calm 3.0 mph4.8 kmh 29.14 in986.8 mb 0.00 in0.0 mm 0.00 in0.0 mm 0.00 in0.0 mm
02:40 PM 96.6°F35.9°C 73.6°F23.1°C 48% 3.0 mph S4.8 kmh S 5.0 mph8.0 kmh 29.14 in986.8 mb 0.00 in0.0 mm 0.00 in0.0 mm 0.00 in0.0 mm
02:35 PM 96.8°F36.0°C 73.8°F23.2°C 48% 1.0 mph SSE1.6 kmh SSE 5.0 mph8.0 kmh 29.14 in986.8 mb 0.00 in0.0 mm 0.00 in0.0 mm 0.00 in0.0 mm
02:30 PM 97.2°F36.2°C 74.2°F23.4°C 48% 4.0 mph SSE6.4 kmh SSE 4.0 mph6.4 kmh 29.14 in986.8 mb 0.00 in0.0 mm 0.00 in0.0 mm 0.00 in0.0 mm
02:25 PM 96.3°F35.7°C 74.6°F23.7°C 50% Calm Calm 1.0 mph1.6 kmh 29.15 in987.1 mb 0.00 in0.0 mm 0.00 in0.0 mm 0.00 in0.0 mm
02:20 PM 95.9°F35.5°C 73.6°F23.1°C 49% Calm Calm 2.0 mph3.2 kmh 29.15 in987.1 mb 0.00 in0.0 mm 0.00 in0.0 mm 0.00 in0.0 mm
02:15 PM 95.7°F35.4°C 74.0°F23.3°C 50% 3.0 mph ESE4.8 kmh ESE 6.0 mph9.7 kmh 29.15 in987.1 mb 0.00 in0.0 mm 0.00 in0.0 mm 0.00 in0.0 mm
02:10 PM 95.5°F35.3°C 73.8°F23.2°C 50% 2.0 mph SE3.2 kmh SE 3.0 mph4.8 kmh 29.15 in987.1 mb 0.00 in0.0 mm 0.00 in0.0 mm 0.00 in0.0 mm
02:05 PM 95.2°F35.1°C 74.2°F23.4°C 51% Calm Calm 4.0 mph6.4 kmh 29.15 in987.1 mb 0.00 in0.0 mm 0.00 in0.0 mm 0.00 in0.0 mm
02:00 PM 95.9°F35.5°C 74.2°F23.4°C 50% 3.0 mph ENE4.8 kmh ENE 5.0 mph8.0 kmh 29.16 in987.5 mb 0.00 in0.0 mm 0.00 in0.0 mm 0.00 in0.0 mm
01:55 PM 95.5°F35.3°C 75.0°F23.9°C 52% 1.0 mph S1.6 kmh S 4.0 mph6.4 kmh 29.16 in987.5 mb 0.00 in0.0 mm 0.00 in0.0 mm 0.00 in0.0 mm
01:50 PM 94.6°F34.8°C 74.8°F23.8°C 53% 5.0 mph NNE8.0 kmh NNE 5.0 mph8.0 kmh 29.16 in987.5 mb 0.00 in0.0 mm 0.00 in0.0 mm 0.00 in0.0 mm
01:45 PM 95.7°F35.4°C 75.2°F24.0°C 52% Calm Calm 3.0 mph4.8 kmh 29.16 in987.5 mb 0.00 in0.0 mm 0.00 in0.0 mm 0.00 in0.0 mm
01:40 PM 94.1°F34.5°C 74.3°F23.5°C 53% Calm Calm 4.0 mph6.4 kmh 29.17 in987.8 mb 0.00 in0.0 mm 0.00 in0.0 mm 0.00 in0.0 mm
01:35 PM 93.4°F34.1°C 74.8°F23.8°C 55% 2.0 mph ENE3.2 kmh ENE 2.0 mph3.2 kmh 29.17 in987.8 mb 0.00 in0.0 mm 0.00 in0.0 mm 0.00 in0.0 mm
01:30 PM 95.0°F35.0°C 75.7°F24.3°C 54% 3.0 mph S4.8 kmh S 4.0 mph6.4 kmh 29.17 in987.8 mb 0.00 in0.0 mm 0.00 in0.0 mm 0.00 in0.0 mm
01:25 PM 94.8°F34.9°C 75.0°F23.9°C 53% 2.0 mph SSE3.2 kmh SSE 2.0 mph3.2 kmh 29.17 in987.8 mb 0.00 in0.0 mm 0.00 in0.0 mm 0.00 in0.0 mm
01:20 PM 94.5°F34.7°C 75.2°F24.0°C 54% 2.0 mph NNW3.2 kmh NNW 4.0 mph6.4 kmh 29.18 in988.1 mb 0.00 in0.0 mm 0.00 in0.0 mm 0.00 in0.0 mm
01:15 PM 93.9°F34.4°C 75.2°F24.0°C 55% Calm Calm 2.0 mph3.2 kmh 29.18 in988.1 mb 0.00 in0.0 mm 0.00 in0.0 mm 0.00 in0.0 mm
01:10 PM 93.2°F34.0°C 76.2°F24.6°C 58% 1.0 mph S1.6 kmh S 3.0 mph4.8 kmh 29.18 in988.1 mb 0.00 in0.0 mm 0.00 in0.0 mm 0.00 in0.0 mm
01:05 PM 92.7°F33.7°C 75.2°F24.0°C 57% Calm Calm 2.0 mph3.2 kmh 29.18 in988.1 mb 0.00 in0.0 mm 0.00 in0.0 mm 0.00 in0.0 mm
01:00 PM 94.1°F34.5°C 75.4°F24.1°C 55% Calm Calm 1.0 mph1.6 kmh 29.18 in988.1 mb 0.00 in0.0 mm 0.00 in0.0 mm 0.00 in0.0 mm
12:55 PM 92.5°F33.6°C 75.0°F23.9°C 57% 1.0 mph SSE1.6 kmh SSE 2.0 mph3.2 kmh 29.19 in988.5 mb 0.00 in0.0 mm 0.00 in0.0 mm 0.00 in0.0 mm
12:50 PM 92.8°F33.8°C 74.8°F23.8°C 56% 2.0 mph S3.2 kmh S 5.0 mph8.0 kmh 29.19 in988.5 mb 0.00 in0.0 mm 0.00 in0.0 mm 0.00 in0.0 mm
12:45 PM 93.0°F33.9°C 75.5°F24.2°C 57% 2.0 mph NE3.2 kmh NE 2.0 mph3.2 kmh 29.19 in988.5 mb 0.00 in0.0 mm 0.00 in0.0 mm 0.00 in0.0 mm
12:40 PM 91.9°F33.3°C 75.0°F23.9°C 58% 3.0 mph S4.8 kmh S 4.0 mph6.4 kmh 29.20 in988.8 mb 0.00 in0.0 mm 0.00 in0.0 mm 0.00 in0.0 mm
12:35 PM 92.7°F33.7°C 75.7°F24.3°C 58% Calm Calm 3.0 mph4.8 kmh 29.20 in988.8 mb 0.00 in0.0 mm 0.00 in0.0 mm 0.00 in0.0 mm
12:30 PM 91.8°F33.2°C 75.4°F24.1°C 59% 2.0 mph W3.2 kmh W 2.0 mph3.2 kmh 29.20 in988.8 mb 0.00 in0.0 mm 0.00 in0.0 mm 0.00 in0.0 mm
12:25 PM 92.1°F33.4°C 75.7°F24.3°C 59% 4.0 mph S6.4 kmh S 4.0 mph6.4 kmh 29.20 in988.8 mb 0.00 in0.0 mm 0.00 in0.0 mm 0.00 in0.0 mm
12:20 PM 92.3°F33.5°C 75.9°F24.4°C 59% Calm Calm -- 29.20 in988.8 mb 0.00 in0.0 mm 0.00 in0.0 mm 0.00 in0.0 mm
12:15 PM 91.4°F33.0°C 75.5°F24.2°C 60% Calm Calm 2.0 mph3.2 kmh 29.21 in989.2 mb 0.00 in0.0 mm 0.00 in0.0 mm 0.00 in0.0 mm
12:10 PM 91.6°F33.1°C 75.7°F24.3°C 60% 2.0 mph SSW3.2 kmh SSW 4.0 mph6.4 kmh 29.21 in989.2 mb 0.00 in0.0 mm 0.00 in0.0 mm 0.00 in0.0 mm
12:05 PM 91.0°F32.8°C 75.6°F24.2°C 61% 2.0 mph SSE3.2 kmh SSE 2.0 mph3.2 kmh 29.21 in989.2 mb 0.00 in0.0 mm 0.00 in0.0 mm 0.00 in0.0 mm
12:00 PM 90.0°F32.2°C 75.7°F24.3°C 63% 5.0 mph S8.0 kmh S 5.0 mph8.0 kmh 29.21 in989.2 mb 0.00 in0.0 mm 0.00 in0.0 mm 0.00 in0.0 mm
11:55 AM 90.7°F32.6°C 75.9°F24.4°C 62% 1.0 mph S1.6 kmh S 2.0 mph3.2 kmh 29.21 in989.2 mb 0.00 in0.0 mm 0.00 in0.0 mm 0.00 in0.0 mm
11:50 AM 89.8°F32.1°C 75.5°F24.2°C 63% Calm Calm 2.0 mph3.2 kmh 29.21 in989.2 mb 0.00 in0.0 mm 0.00 in0.0 mm 0.00 in0.0 mm
11:45 AM 90.0°F32.2°C 75.7°F24.3°C 63% 1.0 mph SSE1.6 kmh SSE 3.0 mph4.8 kmh 29.22 in989.5 mb 0.00 in0.0 mm 0.00 in0.0 mm 0.00 in0.0 mm
11:40 AM 89.4°F31.9°C 75.1°F23.9°C 63% 3.0 mph SSE4.8 kmh SSE 3.0 mph4.8 kmh 29.22 in989.5 mb 0.00 in0.0 mm 0.00 in0.0 mm 0.00 in0.0 mm
11:35 AM 89.6°F32.0°C 75.3°F24.1°C 63% 2.0 mph SSE3.2 kmh SSE 2.0 mph3.2 kmh 29.22 in989.5 mb 0.00 in0.0 mm 0.00 in0.0 mm 0.00 in0.0 mm
11:30 AM 89.6°F32.0°C 76.7°F24.8°C 66% 1.0 mph S1.6 kmh S 1.0 mph1.6 kmh 29.22 in989.5 mb 0.00 in0.0 mm 0.00 in0.0 mm 0.00 in0.0 mm
11:15 AM 89.8°F32.1°C 76.4°F24.7°C 65% 2.0 mph S3.2 kmh S 2.0 mph3.2 kmh 29.22 in989.5 mb 0.00 in0.0 mm 0.00 in0.0 mm 0.00 in0.0 mm
11:10 AM 88.7°F31.5°C 76.3°F24.6°C 67% 2.0 mph SSE3.2 kmh SSE 3.0 mph4.8 kmh 29.22 in989.5 mb 0.00 in0.0 mm 0.00 in0.0 mm 0.00 in0.0 mm
11:05 AM 88.7°F31.5°C 76.3°F24.6°C 67% 2.0 mph SSW3.2 kmh SSW 2.0 mph3.2 kmh 29.22 in989.5 mb 0.00 in0.0 mm 0.00 in0.0 mm 0.00 in0.0 mm
11:00 AM 88.0°F31.1°C 76.1°F24.5°C 68% Calm Calm -- 29.22 in989.5 mb 0.00 in0.0 mm 0.00 in0.0 mm 0.00 in0.0 mm
10:55 AM 87.4°F30.8°C 75.1°F23.9°C 67% 1.0 mph SSW1.6 kmh SSW 2.0 mph3.2 kmh 29.22 in989.5 mb 0.00 in0.0 mm 0.00 in0.0 mm 0.00 in0.0 mm
10:50 AM 87.8°F31.0°C 75.4°F24.1°C 67% Calm Calm 2.0 mph3.2 kmh 29.22 in989.5 mb 0.00 in0.0 mm 0.00 in0.0 mm 0.00 in0.0 mm
10:45 AM 88.3°F31.3°C 75.9°F24.4°C 67% 1.0 mph S1.6 kmh S 3.0 mph4.8 kmh 29.22 in989.5 mb 0.00 in0.0 mm 0.00 in0.0 mm 0.00 in0.0 mm
10:40 AM 86.7°F30.4°C 76.6°F24.8°C 72% Calm Calm 1.0 mph1.6 kmh 29.22 in989.5 mb 0.00 in0.0 mm 0.00 in0.0 mm 0.00 in0.0 mm
10:35 AM 85.6°F29.8°C 75.9°F24.4°C 73% Calm Calm 1.0 mph1.6 kmh 29.22 in989.5 mb 0.00 in0.0 mm 0.00 in0.0 mm 0.00 in0.0 mm
10:30 AM 85.5°F29.7°C 75.8°F24.3°C 73% 1.0 mph S1.6 kmh S 1.0 mph1.6 kmh 29.22 in989.5 mb 0.00 in0.0 mm 0.00 in0.0 mm 0.00 in0.0 mm
10:25 AM 84.4°F29.1°C 76.4°F24.7°C 77% Calm Calm 3.0 mph4.8 kmh 29.22 in989.5 mb 0.00 in0.0 mm 0.00 in0.0 mm 0.00 in0.0 mm
10:20 AM 83.7°F28.7°C 75.7°F24.3°C 77% Calm Calm -- 29.22 in989.5 mb 0.00 in0.0 mm 0.00 in0.0 mm 0.00 in0.0 mm
10:15 AM 83.7°F28.7°C 75.3°F24.1°C 76% Calm Calm 2.0 mph3.2 kmh 29.22 in989.5 mb 0.00 in0.0 mm 0.00 in0.0 mm 0.00 in0.0 mm
10:10 AM 83.5°F28.6°C 75.1°F23.9°C 76% 1.0 mph NW1.6 kmh NW 1.0 mph1.6 kmh 29.22 in989.5 mb 0.00 in0.0 mm 0.00 in0.0 mm 0.00 in0.0 mm
10:05 AM 82.9°F28.3°C 75.3°F24.1°C 78% 2.0 mph SW3.2 kmh SW 2.0 mph3.2 kmh 29.22 in989.5 mb 0.00 in0.0 mm 0.00 in0.0 mm 0.00 in0.0 mm
10:00 AM 83.5°F28.6°C 75.5°F24.2°C 77% Calm Calm 2.0 mph3.2 kmh 29.22 in989.5 mb 0.00 in0.0 mm 0.00 in0.0 mm 0.00 in0.0 mm
09:55 AM 83.3°F28.5°C 75.7°F24.3°C 78% 1.0 mph SSE1.6 kmh SSE 1.0 mph1.6 kmh 29.21 in989.2 mb 0.00 in0.0 mm 0.00 in0.0 mm 0.00 in0.0 mm
09:50 AM 83.3°F28.5°C 75.7°F24.3°C 78% 1.0 mph SSE1.6 kmh SSE 2.0 mph3.2 kmh 29.22 in989.5 mb 0.00 in0.0 mm 0.00 in0.0 mm 0.00 in0.0 mm
09:45 AM 82.6°F28.1°C 75.4°F24.1°C 79% Calm Calm -- 29.22 in989.5 mb 0.00 in0.0 mm 0.00 in0.0 mm 0.00 in0.0 mm
09:40 AM 82.9°F28.3°C 75.7°F24.3°C 79% Calm Calm 2.0 mph3.2 kmh 29.22 in989.5 mb 0.00 in0.0 mm 0.00 in0.0 mm 0.00 in0.0 mm
09:35 AM 82.9°F28.3°C 75.7°F24.3°C 79% Calm Calm 1.0 mph1.6 kmh 29.22 in989.5 mb 0.00 in0.0 mm 0.00 in0.0 mm 0.00 in0.0 mm
09:30 AM 84.0°F28.9°C 76.4°F24.7°C 78% Calm Calm 1.0 mph1.6 kmh 29.21 in989.2 mb 0.00 in0.0 mm 0.00 in0.0 mm 0.00 in0.0 mm
09:25 AM 84.7°F29.3°C 76.7°F24.8°C 77% Calm Calm 1.0 mph1.6 kmh 29.21 in989.2 mb 0.00 in0.0 mm 0.00 in0.0 mm 0.00 in0.0 mm
09:20 AM 84.7°F29.3°C 77.1°F25.1°C 78% Calm Calm 1.0 mph1.6 kmh 29.21 in989.2 mb 0.00 in0.0 mm 0.00 in0.0 mm 0.00 in0.0 mm
09:15 AM 83.8°F28.8°C 76.6°F24.8°C 79% 2.0 mph SSE3.2 kmh SSE 2.0 mph3.2 kmh 29.21 in989.2 mb 0.00 in0.0 mm 0.00 in0.0 mm 0.00 in0.0 mm
09:10 AM 82.9°F28.3°C 76.5°F24.7°C 81% 1.0 mph S1.6 kmh S 3.0 mph4.8 kmh 29.21 in989.2 mb 0.00 in0.0 mm 0.00 in0.0 mm 0.00 in0.0 mm
09:05 AM 82.0°F27.8°C 76.7°F24.8°C 84% Calm Calm -- 29.21 in989.2 mb 0.00 in0.0 mm 0.00 in0.0 mm 0.00 in0.0 mm
09:00 AM 81.0°F27.2°C 76.4°F24.7°C 86% Calm Calm -- 29.21 in989.2 mb 0.00 in0.0 mm 0.00 in0.0 mm 0.00 in0.0 mm
08:55 AM 80.4°F26.9°C 76.2°F24.6°C 87% Calm Calm -- 29.21 in989.2 mb 0.00 in0.0 mm 0.00 in0.0 mm 0.00 in0.0 mm
08:50 AM 79.7°F26.5°C 75.8°F24.3°C 88% Calm Calm -- 29.21 in989.2 mb 0.00 in0.0 mm 0.00 in0.0 mm 0.00 in0.0 mm
08:45 AM 79.2°F26.2°C 76.0°F24.4°C 90% Calm Calm -- 29.21 in989.2 mb 0.00 in0.0 mm 0.00 in0.0 mm 0.00 in0.0 mm
08:40 AM 78.6°F25.9°C 76.1°F24.5°C 92% Calm Calm -- 29.21 in989.2 mb 0.00 in0.0 mm 0.00 in0.0 mm 0.00 in0.0 mm
08:35 AM 78.1°F25.6°C 75.6°F24.2°C 92% Calm Calm -- 29.20 in988.8 mb 0.00 in0.0 mm 0.00 in0.0 mm 0.00 in0.0 mm
08:30 AM 77.7°F25.4°C 75.5°F24.2°C 93% 2.0 mph SSE3.2 kmh SSE 2.0 mph3.2 kmh 29.20 in988.8 mb 0.00 in0.0 mm 0.00 in0.0 mm 0.00 in0.0 mm
08:25 AM 77.2°F25.1°C 75.3°F24.1°C 94% Calm Calm -- 29.20 in988.8 mb 0.00 in0.0 mm 0.00 in0.0 mm 0.00 in0.0 mm
08:20 AM 77.0°F25.0°C 75.1°F23.9°C 94% Calm Calm -- 29.20 in988.8 mb 0.00 in0.0 mm 0.00 in0.0 mm 0.00 in0.0 mm
08:15 AM 76.6°F24.8°C 74.7°F23.7°C 94% Calm Calm -- 29.20 in988.8 mb 0.00 in0.0 mm 0.00 in0.0 mm 0.00 in0.0 mm
08:10 AM 76.5°F24.7°C 74.6°F23.7°C 94% Calm Calm -- 29.20 in988.8 mb 0.00 in0.0 mm 0.00 in0.0 mm 0.00 in0.0 mm
08:05 AM 76.5°F24.7°C 74.6°F23.7°C 94% Calm Calm -- 29.20 in988.8 mb 0.00 in0.0 mm 0.00 in0.0 mm 0.00 in0.0 mm
08:00 AM 76.3°F24.6°C 74.4°F23.6°C 94% Calm Calm -- 29.20 in988.8 mb 0.00 in0.0 mm 0.00 in0.0 mm 0.00 in0.0 mm
07:55 AM 76.1°F24.5°C 74.2°F23.4°C 94% Calm Calm -- 29.20 in988.8 mb 0.00 in0.0 mm 0.00 in0.0 mm 0.00 in0.0 mm
07:50 AM 76.1°F24.5°C 74.2°F23.4°C 94% Calm Calm -- 29.19 in988.5 mb 0.00 in0.0 mm 0.00 in0.0 mm 0.00 in0.0 mm
07:45 AM 76.1°F24.5°C 74.2°F23.4°C 94% Calm Calm -- 29.19 in988.5 mb 0.00 in0.0 mm 0.00 in0.0 mm 0.00 in0.0 mm
07:40 AM 76.1°F24.5°C 74.2°F23.4°C 94% Calm Calm -- 29.19 in988.5 mb 0.00 in0.0 mm 0.00 in0.0 mm 0.00 in0.0 mm
07:35 AM 76.1°F24.5°C 74.2°F23.4°C 94% Calm Calm -- 29.19 in988.5 mb 0.00 in0.0 mm 0.00 in0.0 mm 0.00 in0.0 mm
07:30 AM 76.1°F24.5°C 74.2°F23.4°C 94% Calm Calm -- 29.19 in988.5 mb 0.00 in0.0 mm 0.00 in0.0 mm 0.00 in0.0 mm
07:25 AM 76.1°F24.5°C 74.2°F23.4°C 94% Calm Calm -- 29.19 in988.5 mb 0.00 in0.0 mm 0.00 in0.0 mm 0.00 in0.0 mm
07:20 AM 76.3°F24.6°C 74.4°F23.6°C 94% Calm Calm -- 29.19 in988.5 mb 0.00 in0.0 mm 0.00 in0.0 mm 0.00 in0.0 mm
07:15 AM 76.5°F24.7°C 74.3°F23.5°C 93% Calm Calm -- 29.19 in988.5 mb 0.00 in0.0 mm 0.00 in0.0 mm 0.00 in0.0 mm
07:10 AM 76.6°F24.8°C 74.4°F23.6°C 93% Calm Calm -- 29.19 in988.5 mb 0.00 in0.0 mm 0.00 in0.0 mm 0.00 in0.0 mm
07:05 AM 76.6°F24.8°C 74.4°F23.6°C 93% Calm Calm -- 29.19 in988.5 mb 0.00 in0.0 mm 0.00 in0.0 mm 0.00 in0.0 mm
07:00 AM 76.6°F24.8°C 74.4°F23.6°C 93% Calm Calm -- 29.19 in988.5 mb 0.00 in0.0 mm 0.00 in0.0 mm 0.00 in0.0 mm
06:55 AM 76.6°F24.8°C 74.4°F23.6°C 93% Calm Calm -- 29.19 in988.5 mb 0.00 in0.0 mm 0.00 in0.0 mm 0.00 in0.0 mm
06:50 AM 76.8°F24.9°C 74.3°F23.5°C 92% Calm Calm -- 29.18 in988.1 mb 0.00 in0.0 mm 0.00 in0.0 mm 0.00 in0.0 mm
06:45 AM 77.0°F25.0°C 74.5°F23.6°C 92% Calm Calm -- 29.18 in988.1 mb 0.00 in0.0 mm 0.00 in0.0 mm 0.00 in0.0 mm
06:40 AM 77.0°F25.0°C 74.5°F23.6°C 92% Calm Calm -- 29.18 in988.1 mb 0.00 in0.0 mm 0.00 in0.0 mm 0.00 in0.0 mm
06:35 AM 77.2°F25.1°C 74.7°F23.7°C 92% Calm Calm -- 29.18 in988.1 mb 0.00 in0.0 mm 0.00 in0.0 mm 0.00 in0.0 mm
06:30 AM 77.4°F25.2°C 74.9°F23.8°C 92% Calm Calm -- 29.18 in988.1 mb 0.00 in0.0 mm 0.00 in0.0 mm 0.00 in0.0 mm
06:25 AM 77.4°F25.2°C 74.6°F23.7°C 91% Calm Calm -- 29.18 in988.1 mb 0.00 in0.0 mm 0.00 in0.0 mm 0.00 in0.0 mm
06:20 AM 77.4°F25.2°C 74.6°F23.7°C 91% Calm Calm -- 29.17 in987.8 mb 0.00 in0.0 mm 0.00 in0.0 mm 0.00 in0.0 mm
06:15 AM 77.4°F25.2°C 74.6°F23.7°C 91% Calm Calm -- 29.18 in988.1 mb 0.00 in0.0 mm 0.00 in0.0 mm 0.00 in0.0 mm
06:10 AM 77.5°F25.3°C 74.7°F23.7°C 91% Calm Calm -- 29.18 in988.1 mb 0.00 in0.0 mm 0.00 in0.0 mm 0.00 in0.0 mm
06:05 AM 77.5°F25.3°C 74.7°F23.7°C 91% Calm Calm -- 29.17 in987.8 mb 0.00 in0.0 mm 0.00 in0.0 mm 0.00 in0.0 mm
06:00 AM 77.5°F25.3°C 74.7°F23.7°C 91% 2.0 mph S3.2 kmh S 2.0 mph3.2 kmh 29.17 in987.8 mb 0.00 in0.0 mm 0.00 in0.0 mm 0.00 in0.0 mm
05:55 AM 77.5°F25.3°C 74.7°F23.7°C 91% Calm Calm -- 29.17 in987.8 mb 0.00 in0.0 mm 0.00 in0.0 mm 0.00 in0.0 mm
05:50 AM 77.5°F25.3°C 74.7°F23.7°C 91% Calm Calm -- 29.17 in987.8 mb 0.00 in0.0 mm 0.00 in0.0 mm 0.00 in0.0 mm
05:45 AM 77.5°F25.3°C 74.7°F23.7°C 91% Calm Calm -- 29.17 in987.8 mb 0.00 in0.0 mm 0.00 in0.0 mm 0.00 in0.0 mm
05:40 AM 77.5°F25.3°C 74.7°F23.7°C 91% Calm Calm -- 29.17 in987.8 mb 0.00 in0.0 mm 0.00 in0.0 mm 0.00 in0.0 mm
05:35 AM 77.5°F25.3°C 74.7°F23.7°C 91% Calm Calm -- 29.17 in987.8 mb 0.00 in0.0 mm 0.00 in0.0 mm 0.00 in0.0 mm
05:30 AM 77.5°F25.3°C 74.7°F23.7°C 91% Calm Calm -- 29.17 in987.8 mb 0.00 in0.0 mm 0.00 in0.0 mm 0.00 in0.0 mm
05:25 AM 77.5°F25.3°C 74.7°F23.7°C 91% Calm Calm -- 29.17 in987.8 mb 0.00 in0.0 mm 0.00 in0.0 mm 0.00 in0.0 mm
05:20 AM 77.5°F25.3°C 74.7°F23.7°C 91% Calm Calm -- 29.17 in987.8 mb 0.00 in0.0 mm 0.00 in0.0 mm 0.00 in0.0 mm
05:15 AM 77.5°F25.3°C 74.7°F23.7°C 91% Calm Calm -- 29.17 in987.8 mb 0.00 in0.0 mm 0.00 in0.0 mm 0.00 in0.0 mm
05:10 AM 77.5°F25.3°C 74.7°F23.7°C 91% Calm Calm -- 29.16 in987.5 mb 0.00 in0.0 mm 0.00 in0.0 mm 0.00 in0.0 mm
05:05 AM 77.5°F25.3°C 74.7°F23.7°C 91% Calm Calm 1.0 mph1.6 kmh 29.16 in987.5 mb 0.00 in0.0 mm 0.00 in0.0 mm 0.00 in0.0 mm
05:00 AM 77.5°F25.3°C 74.7°F23.7°C 91% Calm Calm 2.0 mph3.2 kmh 29.17 in987.8 mb 0.00 in0.0 mm 0.00 in0.0 mm 0.00 in0.0 mm
04:55 AM 77.5°F25.3°C 74.7°F23.7°C 91% Calm Calm -- 29.17 in987.8 mb 0.00 in0.0 mm 0.00 in0.0 mm 0.00 in0.0 mm
04:50 AM 77.5°F25.3°C 74.7°F23.7°C 91% Calm Calm -- 29.17 in987.8 mb 0.00 in0.0 mm 0.00 in0.0 mm 0.00 in0.0 mm
04:45 AM 77.5°F25.3°C 74.7°F23.7°C 91% Calm Calm -- 29.16 in987.5 mb 0.00 in0.0 mm 0.00 in0.0 mm 0.00 in0.0 mm
04:40 AM 77.5°F25.3°C 74.7°F23.7°C 91% Calm Calm -- 29.17 in987.8 mb 0.00 in0.0 mm 0.00 in0.0 mm 0.00 in0.0 mm
04:35 AM 77.5°F25.3°C 74.7°F23.7°C 91% Calm Calm -- 29.17 in987.8 mb 0.00 in0.0 mm 0.00 in0.0 mm 0.00 in0.0 mm
04:30 AM 77.5°F25.3°C 74.7°F23.7°C 91% Calm Calm -- 29.17 in987.8 mb 0.00 in0.0 mm 0.00 in0.0 mm 0.00 in0.0 mm
04:25 AM 77.5°F25.3°C 74.7°F23.7°C 91% Calm Calm -- 29.16 in987.5 mb 0.00 in0.0 mm 0.00 in0.0 mm 0.00 in0.0 mm
04:20 AM 77.5°F25.3°C 74.7°F23.7°C 91% Calm Calm 2.0 mph3.2 kmh 29.16 in987.5 mb 0.00 in0.0 mm 0.00 in0.0 mm 0.00 in0.0 mm
04:15 AM 77.5°F25.3°C 74.7°F23.7°C 91% 1.0 mph S1.6 kmh S 2.0 mph3.2 kmh 29.16 in987.5 mb 0.00 in0.0 mm 0.00 in0.0 mm 0.00 in0.0 mm
04:10 AM 77.5°F25.3°C 74.7°F23.7°C 91% 1.0 mph S1.6 kmh S 3.0 mph4.8 kmh 29.16 in987.5 mb 0.00 in0.0 mm 0.00 in0.0 mm 0.00 in0.0 mm
04:05 AM 77.5°F25.3°C 74.7°F23.7°C 91% Calm Calm -- 29.16 in987.5 mb 0.00 in0.0 mm 0.00 in0.0 mm 0.00 in0.0 mm
04:00 AM 77.5°F25.3°C 74.3°F23.5°C 90% Calm Calm -- 29.16 in987.5 mb 0.00 in0.0 mm 0.00 in0.0 mm 0.00 in0.0 mm
03:55 AM 77.5°F25.3°C 74.3°F23.5°C 90% Calm Calm -- 29.17 in987.8 mb 0.00 in0.0 mm 0.00 in0.0 mm 0.00 in0.0 mm
03:50 AM 77.7°F25.4°C 74.5°F23.6°C 90% Calm Calm -- 29.16 in987.5 mb 0.00 in0.0 mm 0.00 in0.0 mm 0.00 in0.0 mm
03:45 AM 77.7°F25.4°C 74.5°F23.6°C 90% Calm Calm -- 29.16 in987.5 mb 0.00 in0.0 mm 0.00 in0.0 mm 0.00 in0.0 mm
03:40 AM 77.7°F25.4°C 74.5°F23.6°C 90% Calm Calm 1.0 mph1.6 kmh 29.17 in987.8 mb 0.00 in0.0 mm 0.00 in0.0 mm 0.00 in0.0 mm
03:35 AM 77.9°F25.5°C 74.7°F23.7°C 90% Calm Calm -- 29.17 in987.8 mb 0.00 in0.0 mm 0.00 in0.0 mm 0.00 in0.0 mm
03:30 AM 77.9°F25.5°C 74.4°F23.6°C 89% Calm Calm 1.0 mph1.6 kmh 29.17 in987.8 mb 0.00 in0.0 mm 0.00 in0.0 mm 0.00 in0.0 mm
03:25 AM 77.9°F25.5°C 74.4°F23.6°C 89% Calm Calm 2.0 mph3.2 kmh 29.17 in987.8 mb 0.00 in0.0 mm 0.00 in0.0 mm 0.00 in0.0 mm
03:20 AM 77.9°F25.5°C 74.4°F23.6°C 89% Calm Calm 2.0 mph3.2 kmh 29.17 in987.8 mb 0.00 in0.0 mm 0.00 in0.0 mm 0.00 in0.0 mm
03:15 AM 77.9°F25.5°C 74.4°F23.6°C 89% Calm Calm 2.0 mph3.2 kmh 29.17 in987.8 mb 0.00 in0.0 mm 0.00 in0.0 mm 0.00 in0.0 mm
03:10 AM 78.1°F25.6°C 74.6°F23.7°C 89% Calm Calm -- 29.17 in987.8 mb 0.00 in0.0 mm 0.00 in0.0 mm 0.00 in0.0 mm
03:05 AM 78.3°F25.7°C 74.4°F23.6°C 88% 1.0 mph S1.6 kmh S 1.0 mph1.6 kmh 29.17 in987.8 mb 0.00 in0.0 mm 0.00 in0.0 mm 0.00 in0.0 mm
03:00 AM 78.3°F25.7°C 74.4°F23.6°C 88% 1.0 mph SSE1.6 kmh SSE 1.0 mph1.6 kmh 29.17 in987.8 mb 0.00 in0.0 mm 0.00 in0.0 mm 0.00 in0.0 mm
02:55 AM 78.3°F25.7°C 74.4°F23.6°C 88% 2.0 mph S3.2 kmh S 2.0 mph3.2 kmh 29.17 in987.8 mb 0.00 in0.0 mm 0.00 in0.0 mm 0.00 in0.0 mm
02:50 AM 78.3°F25.7°C 74.4°F23.6°C 88% Calm Calm 3.0 mph4.8 kmh 29.17 in987.8 mb 0.00 in0.0 mm 0.00 in0.0 mm 0.00 in0.0 mm
02:45 AM 78.3°F25.7°C 74.4°F23.6°C 88% Calm Calm 1.0 mph1.6 kmh 29.17 in987.8 mb 0.00 in0.0 mm 0.00 in0.0 mm 0.00 in0.0 mm
02:40 AM 78.3°F25.7°C 74.4°F23.6°C 88% Calm Calm -- 29.17 in987.8 mb 0.00 in0.0 mm 0.00 in0.0 mm 0.00 in0.0 mm
02:37 AM 78.3°F25.7°C 74.4°F23.6°C 88% Calm Calm -- 29.17 in987.8 mb 0.00 in0.0 mm 0.00 in0.0 mm 0.00 in0.0 mm
02:31 AM 78.3°F25.7°C 74.4°F23.6°C 88% Calm Calm 2.0 mph3.2 kmh 29.17 in987.8 mb 0.00 in0.0 mm 0.00 in0.0 mm 0.00 in0.0 mm
02:25 AM 78.3°F25.7°C 74.4°F23.6°C 88% Calm Calm 2.0 mph3.2 kmh 29.17 in987.8 mb 0.00 in0.0 mm 0.00 in0.0 mm 0.00 in0.0 mm
02:20 AM 78.3°F25.7°C 74.4°F23.6°C 88% 3.0 mph E4.8 kmh E 3.0 mph4.8 kmh 29.17 in987.8 mb 0.00 in0.0 mm 0.00 in0.0 mm 0.00 in0.0 mm
02:15 AM 78.3°F25.7°C 74.4°F23.6°C 88% Calm Calm -- 29.17 in987.8 mb 0.00 in0.0 mm 0.00 in0.0 mm 0.00 in0.0 mm
02:10 AM 78.4°F25.8°C 74.2°F23.4°C 87% Calm Calm 1.0 mph1.6 kmh 29.17 in987.8 mb 0.00 in0.0 mm 0.00 in0.0 mm 0.00 in0.0 mm
02:05 AM 78.4°F25.8°C 74.2°F23.4°C 87% Calm Calm 2.0 mph3.2 kmh 29.17 in987.8 mb 0.00 in0.0 mm 0.00 in0.0 mm 0.00 in0.0 mm
02:00 AM 78.4°F25.8°C 74.2°F23.4°C 87% 1.0 mph S1.6 kmh S 2.0 mph3.2 kmh 29.17 in987.8 mb 0.00 in0.0 mm 0.00 in0.0 mm 0.00 in0.0 mm
01:55 AM 78.6°F25.9°C 74.4°F23.6°C 87% Calm Calm -- 29.17 in987.8 mb 0.00 in0.0 mm 0.00 in0.0 mm 0.00 in0.0 mm
01:50 AM 78.6°F25.9°C 74.0°F23.3°C 86% Calm Calm -- 29.17 in987.8 mb 0.00 in0.0 mm 0.00 in0.0 mm 0.00 in0.0 mm
01:45 AM 78.8°F26.0°C 74.2°F23.4°C 86% Calm Calm -- 29.17 in987.8 mb 0.00 in0.0 mm 0.00 in0.0 mm 0.00 in0.0 mm
01:40 AM 79.0°F26.1°C 74.4°F23.6°C 86% Calm Calm -- 29.17 in987.8 mb 0.00 in0.0 mm 0.00 in0.0 mm 0.00 in0.0 mm
01:35 AM 79.2°F26.2°C 74.6°F23.7°C 86% Calm Calm -- 29.17 in987.8 mb 0.00 in0.0 mm 0.00 in0.0 mm 0.00 in0.0 mm
01:30 AM 79.2°F26.2°C 74.3°F23.5°C 85% 2.0 mph SSE3.2 kmh SSE 2.0 mph3.2 kmh 29.18 in988.1 mb 0.00 in0.0 mm 0.00 in0.0 mm 0.00 in0.0 mm
01:25 AM 79.3°F26.3°C 74.4°F23.6°C 85% Calm Calm 7.0 mph11.3 kmh 29.17 in987.8 mb 0.00 in0.0 mm 0.00 in0.0 mm 0.00 in0.0 mm
01:20 AM 79.3°F26.3°C 74.4°F23.6°C 85% Calm Calm 3.0 mph4.8 kmh 29.17 in987.8 mb 0.00 in0.0 mm 0.00 in0.0 mm 0.00 in0.0 mm
01:15 AM 79.5°F26.4°C 74.2°F23.4°C 84% Calm Calm 6.0 mph9.7 kmh 29.17 in987.8 mb 0.00 in0.0 mm 0.00 in0.0 mm 0.00 in0.0 mm
01:10 AM 79.7°F26.5°C 74.4°F23.6°C 84% 3.0 mph SSE4.8 kmh SSE 3.0 mph4.8 kmh 29.17 in987.8 mb 0.00 in0.0 mm 0.00 in0.0 mm 0.00 in0.0 mm
01:05 AM 79.7°F26.5°C 74.1°F23.4°C 83% 2.0 mph S3.2 kmh S 4.0 mph6.4 kmh 29.17 in987.8 mb 0.00 in0.0 mm 0.00 in0.0 mm 0.00 in0.0 mm
01:00 AM 79.9°F26.6°C 74.3°F23.5°C 83% 3.0 mph S4.8 kmh S 5.0 mph8.0 kmh 29.17 in987.8 mb 0.00 in0.0 mm 0.00 in0.0 mm 0.00 in0.0 mm
12:55 AM 79.9°F26.6°C 73.9°F23.3°C 82% 2.0 mph SSE3.2 kmh SSE 4.0 mph6.4 kmh 29.17 in987.8 mb 0.00 in0.0 mm 0.00 in0.0 mm 0.00 in0.0 mm
12:50 AM 80.1°F26.7°C 73.7°F23.2°C 81% 3.0 mph NNE4.8 kmh NNE 3.0 mph4.8 kmh 29.17 in987.8 mb 0.00 in0.0 mm 0.00 in0.0 mm 0.00 in0.0 mm
12:45 AM 80.1°F26.7°C 73.7°F23.2°C 81% Calm Calm 1.0 mph1.6 kmh 29.17 in987.8 mb 0.00 in0.0 mm 0.00 in0.0 mm 0.00 in0.0 mm
12:40 AM 80.2°F26.8°C 73.8°F23.2°C 81% Calm Calm 2.0 mph3.2 kmh 29.17 in987.8 mb 0.00 in0.0 mm 0.00 in0.0 mm 0.00 in0.0 mm
12:35 AM 80.4°F26.9°C 74.0°F23.3°C 81% 2.0 mph NNE3.2 kmh NNE 3.0 mph4.8 kmh 29.17 in987.8 mb 0.00 in0.0 mm 0.00 in0.0 mm 0.00 in0.0 mm
12:30 AM 80.4°F26.9°C 73.6°F23.1°C 80% 3.0 mph S4.8 kmh S 4.0 mph6.4 kmh 29.18 in988.1 mb 0.00 in0.0 mm 0.00 in0.0 mm 0.00 in0.0 mm
12:25 AM 80.6°F27.0°C 73.8°F23.2°C 80% Calm Calm 4.0 mph6.4 kmh 29.18 in988.1 mb 0.00 in0.0 mm 0.00 in0.0 mm 0.00 in0.0 mm
12:20 AM 80.8°F27.1°C 74.0°F23.3°C 80% 3.0 mph S4.8 kmh S 3.0 mph4.8 kmh 29.17 in987.8 mb 0.00 in0.0 mm 0.00 in0.0 mm 0.00 in0.0 mm
12:15 AM 80.8°F27.1°C 73.7°F23.2°C 79% Calm Calm 2.0 mph3.2 kmh 29.18 in988.1 mb 0.00 in0.0 mm 0.00 in0.0 mm 0.00 in0.0 mm
12:10 AM 81.0°F27.2°C 73.9°F23.3°C 79% Calm Calm 1.0 mph1.6 kmh 29.17 in987.8 mb 0.00 in0.0 mm 0.00 in0.0 mm 0.00 in0.0 mm
12:05 AM 81.0°F27.2°C 73.9°F23.3°C 79% 1.0 mph S1.6 kmh S 4.0 mph6.4 kmh 29.17 in987.8 mb 0.00 in0.0 mm 0.00 in0.0 mm 0.00 in0.0 mm
12:00 AM 81.1°F27.3°C 73.6°F23.1°C 78% Calm Calm 3.0 mph4.8 kmh 29.17 in987.8 mb 0.00 in0.0 mm 0.00 in0.0 mm 0.00 in0.0 mm